Taganrog Yuzhny Airport

Jump to: basic info | weather | comments

Related pages: nearby airports | nearby navaids | notams | map

Basic information (top)

Codes: TGK URRT
Location: lon 47.200001, lat 38.849998, elev 118 ft / 36 m msl
Status: medium_airport

Weather (top)

Current conditions for Rostov-na-Donu Airport 40nm (73km) E (rec'd 2015/01/30 15:00Z):

URRR 301500Z 09007MPS 3300 -RA BR BKN001 OVC100 03/02 Q1011 04290042 TEMPO 0300 FG OVC002 RMK QBB050 MAST OBSC

Airport forecast for Rostov-na-Donu Airport 40nm (73km) E (rec'd 2015/01/30 15:00Z):

TAF URRR 301400Z 3015/3115 09005G10MPS 0300 FG OVC002 SCT020CB 
      TEMPO 3015/3110 13005MPS 2100 -SHRA BR BKN007 SCT020CB 
      BECMG 3110/3112 2100 BR BKN007 SCT020CB

Latest comments (top)

dgs: gsdg [read]

More... (top)

See also NOTAMs and nearby airports and navaids, or visit the Taganrog Yuzhny Airport page at the main OurAirports website..